createdAt,value
2018-11-10T00:02:30.195Z,93.20
2018-11-10T00:05:00.321Z,92.67
2018-11-10T00:07:30.858Z,93.26
2018-11-10T00:10:00.891Z,95.06
2018-11-10T00:12:31.510Z,95.02
2018-11-10T00:15:01.238Z,95.23
2018-11-10T00:17:31.421Z,95.94
2018-11-10T00:20:02.192Z,95.56
2018-11-10T00:22:32.105Z,94.69
2018-11-10T00:25:01.941Z,95.24
2018-11-10T00:27:32.121Z,95.26
2018-11-10T00:30:01.414Z,95.23
2018-11-10T00:32:31.647Z,94.22
2018-11-10T00:35:02.406Z,94.27
2018-11-10T00:37:32.031Z,95.17
2018-11-10T00:40:01.807Z,94.35
2018-11-10T00:42:32.024Z,93.92
2018-11-10T00:45:01.529Z,93.86
2018-11-10T00:47:32.242Z,94.60
2018-11-10T00:50:02.403Z,95.12
2018-11-10T00:52:32.354Z,95.51
2018-11-10T00:55:02.401Z,97.39
2018-11-10T00:57:33.108Z,95.10
2018-11-10T01:00:03.321Z,98.26
2018-11-10T01:02:33.425Z,95.15
2018-11-10T01:05:03.886Z,97.68
2018-11-10T01:07:34.884Z,98.50
2018-11-10T01:10:04.508Z,99.65
2018-11-10T01:12:34.459Z,96.92
2018-11-10T01:15:04.766Z,96.39
2018-11-10T01:17:35.078Z,97.54
2018-11-10T01:20:05.694Z,100.00
2018-11-10T01:22:35.883Z,100.00
2018-11-10T01:25:07.323Z,100.00
2018-11-10T01:27:37.133Z,100.00
2018-11-10T01:30:09.441Z,99.60
2018-11-10T01:32:39.888Z,99.08
2018-11-10T01:35:10.389Z,99.40
2018-11-10T01:37:41.115Z,100.00
2018-11-10T01:40:12.958Z,100.00
2018-11-10T01:42:43.960Z,100.00
2018-11-10T01:45:15.747Z,100.00
2018-11-10T01:47:46.180Z,100.00
2018-11-10T01:50:16.460Z,100.00
2018-11-10T01:52:46.921Z,100.00
2018-11-10T01:55:17.562Z,100.00
2018-11-10T01:57:48.263Z,100.00
2018-11-10T02:00:19.569Z,100.00
2018-11-10T02:02:50.779Z,100.00
2018-11-10T02:05:20.904Z,100.00
2018-11-10T02:07:50.931Z,99.98
2018-11-10T02:10:20.868Z,100.00
2018-11-10T02:12:51.352Z,98.74
2018-11-10T02:15:23.599Z,100.00
2018-11-10T02:17:54.738Z,100.00
2018-11-10T02:20:25.012Z,100.00
2018-11-10T02:22:56.168Z,100.00
2018-11-10T02:25:26.343Z,100.00
2018-11-10T02:27:56.106Z,100.00
2018-11-10T02:30:26.459Z,100.00
2018-11-10T02:32:56.484Z,100.00
2018-11-10T02:35:26.844Z,100.00
2018-11-10T02:37:57.718Z,100.00
2018-11-10T02:40:27.800Z,100.00
2018-11-10T02:42:57.625Z,100.00
2018-11-10T02:45:27.602Z,100.00
2018-11-10T02:47:57.977Z,100.00
2018-11-10T02:50:29.122Z,100.00
2018-11-10T02:52:59.102Z,100.00
2018-11-10T02:55:29.711Z,100.00
2018-11-10T02:58:00.481Z,100.00
2018-11-10T03:00:30.269Z,100.00
2018-11-10T03:03:00.283Z,100.00
2018-11-10T03:05:30.503Z,100.00
2018-11-10T03:08:00.140Z,100.00
2018-11-10T03:10:29.892Z,100.00
2018-11-10T03:13:00.074Z,100.00
2018-11-10T03:15:30.328Z,100.00
2018-11-10T03:18:00.883Z,100.00
2018-11-10T03:20:30.850Z,100.00
2018-11-10T03:23:00.560Z,100.00
2018-11-10T03:25:31.209Z,100.00
2018-11-10T03:28:00.906Z,100.00
2018-11-10T03:30:30.789Z,100.00
2018-11-10T03:33:00.756Z,100.00
2018-11-10T03:35:32.123Z,100.00
2018-11-10T03:38:02.060Z,100.00
2018-11-10T03:40:32.696Z,100.00
2018-11-10T03:43:02.397Z,100.00
2018-11-10T03:45:32.272Z,100.00
2018-11-10T03:48:02.743Z,100.00
2018-11-10T03:50:33.793Z,100.00
2018-11-10T03:53:04.846Z,100.00
2018-11-10T03:55:35.019Z,100.00
2018-11-10T03:58:06.578Z,100.00
2018-11-10T04:00:36.491Z,100.00
2018-11-10T04:03:07.416Z,100.00
2018-11-10T04:05:37.644Z,100.00
2018-11-10T04:08:08.474Z,100.00
2018-11-10T04:10:39.132Z,100.00
2018-11-10T04:13:09.359Z,100.00
2018-11-10T04:15:39.430Z,100.00
2018-11-10T04:18:09.736Z,100.00
2018-11-10T04:20:40.201Z,100.00
2018-11-10T04:23:10.240Z,100.00
2018-11-10T04:25:40.177Z,100.00
2018-11-10T04:28:09.931Z,100.00
2018-11-10T04:30:39.805Z,100.00
2018-11-10T04:33:10.340Z,100.00
2018-11-10T04:35:40.549Z,100.00
2018-11-10T04:38:11.194Z,100.00
2018-11-10T04:40:41.331Z,100.00
2018-11-10T04:43:12.202Z,100.00
2018-11-10T04:45:43.476Z,100.00
2018-11-10T04:48:14.130Z,100.00
2018-11-10T04:50:44.148Z,100.00
2018-11-10T04:53:14.755Z,100.00
2018-11-10T04:55:45.001Z,100.00
2018-11-10T04:58:15.378Z,100.00
2018-11-10T05:00:44.931Z,100.00
2018-11-10T05:03:15.291Z,100.00
2018-11-10T05:05:46.847Z,100.00
2018-11-10T05:08:17.411Z,100.00
2018-11-10T05:10:47.758Z,100.00
2018-11-10T05:13:18.062Z,100.00
2018-11-10T05:15:48.366Z,100.00
2018-11-10T05:18:18.688Z,100.00
2018-11-10T05:20:48.838Z,100.00
2018-11-10T05:23:19.917Z,100.00
2018-11-10T05:25:50.818Z,100.00
2018-11-10T05:28:21.709Z,100.00
2018-11-10T05:30:52.318Z,100.00
2018-11-10T05:33:22.569Z,100.00
2018-11-10T05:35:52.734Z,100.00
2018-11-10T05:38:28.609Z,100.00
2018-11-10T05:40:58.766Z,100.00
2018-11-10T05:43:30.370Z,100.00
2018-11-10T05:46:00.310Z,100.00
2018-11-10T05:48:31.441Z,100.00
2018-11-10T05:51:01.412Z,100.00
2018-11-10T05:53:31.342Z,100.00
2018-11-10T05:56:02.037Z,100.00
2018-11-10T05:58:32.017Z,100.00
2018-11-10T06:01:01.968Z,100.00
2018-11-10T06:03:33.476Z,100.00
2018-11-10T06:06:04.190Z,100.00
2018-11-10T06:08:34.568Z,100.00
2018-11-10T06:11:04.766Z,100.00
2018-11-10T06:13:35.770Z,100.00
2018-11-10T06:16:05.542Z,100.00
2018-11-10T06:18:36.609Z,100.00
2018-11-10T06:21:08.106Z,100.00
2018-11-10T06:23:38.708Z,100.00
2018-11-10T06:26:09.805Z,100.00
2018-11-10T06:28:40.766Z,100.00
2018-11-10T06:31:10.569Z,100.00
2018-11-10T06:33:41.247Z,100.00
2018-11-10T06:36:12.911Z,100.00
2018-11-10T06:38:42.792Z,100.00
2018-11-10T06:41:14.119Z,100.00
2018-11-10T06:43:45.183Z,100.00
2018-11-10T06:46:17.018Z,97.69
2018-11-10T06:48:46.850Z,98.16
2018-11-10T06:51:18.070Z,99.60
2018-11-10T06:53:48.082Z,96.80
2018-11-10T06:56:18.526Z,96.51
2018-11-10T06:58:50.016Z,100.00
2018-11-10T07:01:20.025Z,100.00
2018-11-10T07:03:50.649Z,100.00
2018-11-10T07:06:20.621Z,100.00
2018-11-10T07:08:51.112Z,100.00
2018-11-10T07:11:21.945Z,100.00
2018-11-10T07:13:54.043Z,96.60
2018-11-10T07:16:24.524Z,92.25
2018-11-10T07:18:54.315Z,96.06
2018-11-10T07:21:27.331Z,97.20
2018-11-10T07:23:58.836Z,88.35
2018-11-10T07:26:28.535Z,91.95
2018-11-10T07:29:03.591Z,91.38
2018-11-10T07:31:34.420Z,94.77
2018-11-10T07:34:03.800Z,93.42
2018-11-10T07:36:36.463Z,89.67
2018-11-10T07:39:13.818Z,92.42
2018-11-10T07:42:04.230Z,92.95
2018-11-10T07:44:41.427Z,97.29
2018-11-10T07:47:25.756Z,100.00
2018-11-10T07:50:07.766Z,100.00
2018-11-10T07:52:40.409Z,95.76
2018-11-10T07:55:17.056Z,95.63
2018-11-10T07:57:55.902Z,90.76
2018-11-10T08:00:31.862Z,82.59
2018-11-10T08:03:05.714Z,78.73
2018-11-10T08:05:39.331Z,76.84
2018-11-10T08:08:09.885Z,75.17
2018-11-10T08:10:47.332Z,76.76
2018-11-10T08:13:20.463Z,77.62
2018-11-10T08:15:54.750Z,71.16
2018-11-10T08:18:30.693Z,76.44
2018-11-10T08:21:07.425Z,74.27
2018-11-10T08:23:38.890Z,80.14
2018-11-10T08:26:09.067Z,80.09
2018-11-10T08:28:41.988Z,72.38
2018-11-10T08:31:15.199Z,72.62
2018-11-10T08:33:48.045Z,69.08
2018-11-10T08:36:22.407Z,67.33
2018-11-10T08:38:57.252Z,72.26
2018-11-10T08:41:29.624Z,71.00
2018-11-10T08:44:03.803Z,66.86
2018-11-10T08:46:35.685Z,66.06
2018-11-10T08:49:07.094Z,67.03
2018-11-10T08:51:39.937Z,67.18
2018-11-10T08:54:13.453Z,65.27
2018-11-10T08:56:46.871Z,64.81
2018-11-10T08:59:21.615Z,59.19
2018-11-10T09:01:54.960Z,62.30
2018-11-10T09:04:24.227Z,58.31
2018-11-10T09:06:56.009Z,60.83
2018-11-10T09:09:25.344Z,60.41
2018-11-10T09:11:56.763Z,61.92
2018-11-10T09:14:26.527Z,71.34
2018-11-10T09:16:59.482Z,64.36
2018-11-10T09:19:30.479Z,68.24
2018-11-10T09:21:59.995Z,70.55
2018-11-10T09:24:31.202Z,69.23
2018-11-10T09:27:00.330Z,64.81
2018-11-10T09:29:34.759Z,57.70
2018-11-10T09:32:08.783Z,60.21
2018-11-10T09:34:37.846Z,57.35
2018-11-10T09:37:09.320Z,56.67
2018-11-10T09:39:40.326Z,56.01
2018-11-10T09:42:11.230Z,66.14
2018-11-10T09:44:43.153Z,64.58
2018-11-10T09:47:12.400Z,65.81
2018-11-10T09:49:43.576Z,66.54
2018-11-10T09:52:18.587Z,58.51
2018-11-10T09:54:52.542Z,58.55
2018-11-10T09:57:22.838Z,60.41
2018-11-10T09:59:54.603Z,64.35
2018-11-10T10:02:29.584Z,58.16
2018-11-10T10:05:03.078Z,56.60
2018-11-10T10:07:38.153Z,58.75
2018-11-10T10:10:13.846Z,56.90
2018-11-10T10:12:46.200Z,54.30
2018-11-10T10:15:16.515Z,55.28
2018-11-10T10:17:48.862Z,52.68
2018-11-10T10:20:25.110Z,51.81
2018-11-10T10:22:57.543Z,55.38
2018-11-10T10:25:28.231Z,55.29
2018-11-10T10:27:58.124Z,55.48
2018-11-10T10:30:28.388Z,53.87
2018-11-10T10:32:57.975Z,52.12
2018-11-10T10:35:29.177Z,51.33
2018-11-10T10:37:59.872Z,48.32
2018-11-10T10:40:29.757Z,53.26
2018-11-10T10:43:00.835Z,52.20
2018-11-10T10:45:30.331Z,59.58
2018-11-10T10:48:00.621Z,59.00
2018-11-10T10:50:30.574Z,57.52
2018-11-10T10:53:00.595Z,58.60
2018-11-10T10:55:32.342Z,54.51
2018-11-10T10:58:02.223Z,58.31
2018-11-10T11:00:36.443Z,56.95
2018-11-10T11:03:11.082Z,56.05
2018-11-10T11:05:42.920Z,51.64
2018-11-10T11:08:12.699Z,51.29
2018-11-10T11:10:42.351Z,53.82
2018-11-10T11:13:11.967Z,53.67
2018-11-10T11:15:42.299Z,56.60
2018-11-10T11:18:13.226Z,55.54
2018-11-10T11:20:43.992Z,55.32
2018-11-10T11:23:13.503Z,51.54
2018-11-10T11:25:44.251Z,56.31
2018-11-10T11:28:14.212Z,58.61
2018-11-10T11:30:43.787Z,54.46
2018-11-10T11:33:13.732Z,53.56
2018-11-10T11:35:43.444Z,55.77
2018-11-10T11:38:15.148Z,57.37
2018-11-10T11:40:45.055Z,53.45
2018-11-10T11:43:16.718Z,53.92
2018-11-10T11:45:46.416Z,52.58
2018-11-10T11:48:16.287Z,52.52
2018-11-10T11:50:47.356Z,51.55
2018-11-10T11:53:18.795Z,51.58
2018-11-10T11:55:50.295Z,48.98
2018-11-10T11:58:20.192Z,48.18
2018-11-10T12:00:49.925Z,50.44
2018-11-10T12:03:19.914Z,48.00
2018-11-10T12:05:49.781Z,46.38
2018-11-10T12:08:19.841Z,49.88
2018-11-10T12:10:50.930Z,48.09
2018-11-10T12:13:22.231Z,47.10
2018-11-10T12:15:52.656Z,46.37
2018-11-10T12:18:23.180Z,48.33
2018-11-10T12:20:54.168Z,47.41
2018-11-10T12:23:24.262Z,48.32
2018-11-10T12:25:54.399Z,56.08
2018-11-10T12:28:25.179Z,53.92
2018-11-10T12:30:55.340Z,54.39
2018-11-10T12:33:31.777Z,52.60
2018-11-10T12:36:02.974Z,49.40
2018-11-10T12:38:33.301Z,49.47
2018-11-10T12:41:03.783Z,51.29
2018-11-10T12:43:35.189Z,54.88
2018-11-10T12:46:05.058Z,57.48
2018-11-10T12:48:34.517Z,51.74
2018-11-10T12:51:04.481Z,54.33
2018-11-10T12:53:34.504Z,54.73
2018-11-10T12:56:05.466Z,53.88
2018-11-10T12:58:35.488Z,53.30
2018-11-10T13:01:05.229Z,49.80
2018-11-10T13:03:35.429Z,52.63
2018-11-10T13:06:06.116Z,49.97
2018-11-10T13:08:37.155Z,55.68
2018-11-10T13:11:07.491Z,58.40
2018-11-10T13:13:40.989Z,62.59
2018-11-10T13:16:11.622Z,64.40
2018-11-10T13:18:41.582Z,65.22
2018-11-10T13:21:13.008Z,67.87
2018-11-10T13:23:44.245Z,63.10
2018-11-10T13:26:15.463Z,61.67
2018-11-10T13:28:47.441Z,59.70
2018-11-10T13:31:17.720Z,62.13
2018-11-10T13:34:56.904Z,64.77
2018-11-10T13:37:28.030Z,62.62
2018-11-10T13:39:57.849Z,67.68
2018-11-10T13:42:28.175Z,70.33
2018-11-10T13:44:58.386Z,69.14
2018-11-10T13:47:28.762Z,70.48
2018-11-10T13:50:00.149Z,67.86
2018-11-10T13:52:30.390Z,64.40
2018-11-10T13:55:01.052Z,64.38
2018-11-10T13:57:31.531Z,71.29
2018-11-10T14:00:01.227Z,64.24
2018-11-10T14:02:32.515Z,65.93
2018-11-10T14:05:02.172Z,69.93
2018-11-10T14:07:31.848Z,71.27
2018-11-10T14:10:01.615Z,70.86
2018-11-10T14:12:32.254Z,65.85
2018-11-10T14:15:02.732Z,66.32
2018-11-10T14:17:32.596Z,65.67
2018-11-10T14:20:02.420Z,66.92
2018-11-10T14:22:32.786Z,66.59
2018-11-10T14:25:02.375Z,66.90
2018-11-10T14:27:32.042Z,66.12
2018-11-10T14:30:02.112Z,67.65
2018-11-10T14:32:32.178Z,67.54
2018-11-10T14:35:04.350Z,68.57
2018-11-10T14:37:37.287Z,68.33
2018-11-10T14:40:11.816Z,70.56
2018-11-10T14:42:43.653Z,70.77
2018-11-10T14:45:20.555Z,70.46
2018-11-10T14:47:51.677Z,71.93
2018-11-10T14:50:23.897Z,72.77
2018-11-10T14:52:55.099Z,74.40
2018-11-10T14:55:26.659Z,75.69
2018-11-10T14:57:58.611Z,76.29
2018-11-10T15:00:31.570Z,78.26
2018-11-10T15:03:02.699Z,81.05
2018-11-10T15:05:35.900Z,75.58
2018-11-10T15:08:07.595Z,75.40
2018-11-10T15:10:38.728Z,75.96
2018-11-10T15:13:12.139Z,78.74
2018-11-10T15:15:44.627Z,78.88
2018-11-10T15:18:19.043Z,78.95
2018-11-10T15:20:54.496Z,80.07
2018-11-10T15:23:26.812Z,80.24
2018-11-10T15:25:57.549Z,81.96
2018-11-10T15:28:32.297Z,82.54
2018-11-10T15:31:06.179Z,83.06
2018-11-10T15:33:41.011Z,83.98
2018-11-10T15:36:20.398Z,84.89
2018-11-10T15:38:53.750Z,87.70
2018-11-10T15:41:27.471Z,88.06
2018-11-10T15:44:03.590Z,89.03
2018-11-10T15:46:39.239Z,88.47
2018-11-10T15:49:18.159Z,89.21
2018-11-10T15:51:57.227Z,90.98
2018-11-10T15:54:30.690Z,89.82
2018-11-10T15:57:02.794Z,89.59
2018-11-10T15:59:33.890Z,90.71
2018-11-10T16:02:05.372Z,89.53
2018-11-10T16:04:39.613Z,90.06
2018-11-10T16:07:10.783Z,89.40
2018-11-10T16:09:45.813Z,90.07
2018-11-10T16:12:17.001Z,91.79
2018-11-10T16:14:48.843Z,89.37
2018-11-10T16:17:27.432Z,91.54
2018-11-10T16:20:03.420Z,89.92
2018-11-10T16:22:35.502Z,91.42
2018-11-10T16:25:10.387Z,91.31
2018-11-10T16:27:42.174Z,93.18
2018-11-10T16:32:54.364Z,95.65
2018-11-10T16:35:29.399Z,95.01
2018-11-10T16:38:05.057Z,94.40
2018-11-10T16:40:40.258Z,96.69
2018-11-10T16:43:16.650Z,97.05
2018-11-10T16:45:53.017Z,97.29
2018-11-10T16:48:29.638Z,95.35
2018-11-10T16:51:01.713Z,95.57
2018-11-10T16:53:33.280Z,95.36
2018-11-10T16:56:14.299Z,96.66
2018-11-10T16:58:50.706Z,96.70
2018-11-10T17:01:22.680Z,95.59
2018-11-10T17:03:58.290Z,95.65
2018-11-10T17:09:10.923Z,95.07
2018-11-10T17:11:44.833Z,97.14
2018-11-10T17:14:15.124Z,97.35
2018-11-10T17:16:46.949Z,95.75
2018-11-10T17:19:24.682Z,95.06
2018-11-10T17:21:58.555Z,96.55
2018-11-10T17:24:34.007Z,95.35
2018-11-10T17:27:06.997Z,95.60
2018-11-10T17:29:55.424Z,98.21
2018-11-10T17:32:31.285Z,97.26
2018-11-10T17:35:07.545Z,97.15
2018-11-10T17:37:38.319Z,95.78
2018-11-10T17:40:12.098Z,95.08
2018-11-10T17:42:48.308Z,96.57
2018-11-10T17:45:19.553Z,96.21
2018-11-10T17:47:50.977Z,96.25
2018-11-10T17:50:22.529Z,95.20
2018-11-10T17:53:00.297Z,96.70
2018-11-10T17:55:32.595Z,95.18
2018-11-10T17:58:05.386Z,94.04
2018-11-10T18:00:36.843Z,94.71
2018-11-10T18:03:09.232Z,95.01
2018-11-10T18:05:43.787Z,96.08
2018-11-10T18:08:18.018Z,95.59
2018-11-10T18:10:50.438Z,96.17
2018-11-10T18:13:24.097Z,97.35
2018-11-10T18:15:57.532Z,94.65
2018-11-10T18:18:29.520Z,92.96
2018-11-10T18:21:01.859Z,94.30
2018-11-10T18:23:34.781Z,91.13
2018-11-10T18:26:08.662Z,91.19
2018-11-10T18:28:41.554Z,91.21
2018-11-10T18:31:12.034Z,94.14
2018-11-10T18:33:50.639Z,93.05
2018-11-10T18:36:24.073Z,92.27
2018-11-10T18:38:58.657Z,93.03
2018-11-10T18:41:29.931Z,90.15
2018-11-10T18:44:05.153Z,90.14
2018-11-10T18:46:42.358Z,92.95
2018-11-10T18:49:18.660Z,89.67
2018-11-10T18:51:50.719Z,90.57
2018-11-10T18:54:27.157Z,91.54
2018-11-10T18:57:06.331Z,88.82
2018-11-10T18:59:36.891Z,89.51
2018-11-10T19:02:07.549Z,88.92
2018-11-10T19:04:40.575Z,87.90
2018-11-10T19:07:12.713Z,88.30
2018-11-10T19:09:44.910Z,90.93
2018-11-10T19:12:15.297Z,89.40
2018-11-10T19:14:48.312Z,95.44
2018-11-10T19:17:19.919Z,100.00
2018-11-10T19:19:50.912Z,99.18
2018-11-10T19:22:25.026Z,100.00
2018-11-10T19:25:05.385Z,100.00
2018-11-10T19:27:37.625Z,100.00
2018-11-10T19:30:14.514Z,96.64
2018-11-10T19:32:49.162Z,95.45
2018-11-10T19:35:28.083Z,93.68
2018-11-10T19:38:00.747Z,95.71
2018-11-10T19:40:34.249Z,100.00
2018-11-10T19:43:07.076Z,100.00
2018-11-10T19:45:39.426Z,100.00
2018-11-10T19:48:14.556Z,100.00
2018-11-10T19:50:44.616Z,100.00
2018-11-10T19:53:18.972Z,100.00
2018-11-10T19:55:51.205Z,100.00
2018-11-10T19:58:24.467Z,100.00
2018-11-10T20:00:56.548Z,100.00
2018-11-10T20:03:28.379Z,100.00
2018-11-10T20:06:02.649Z,100.00
2018-11-10T20:08:34.844Z,100.00
2018-11-10T20:11:06.604Z,100.00
2018-11-10T20:13:37.959Z,100.00
2018-11-10T20:16:08.839Z,100.00
2018-11-10T20:18:42.137Z,100.00
2018-11-10T20:21:16.974Z,100.00
2018-11-10T20:23:48.689Z,100.00
2018-11-10T20:26:21.694Z,100.00
2018-11-10T20:28:52.812Z,100.00
2018-11-10T20:31:25.061Z,100.00
2018-11-10T20:33:56.490Z,100.00
2018-11-10T20:36:26.735Z,100.00
2018-11-10T20:38:56.583Z,100.00
2018-11-10T20:41:29.151Z,100.00
2018-11-10T20:43:59.929Z,100.00
2018-11-10T20:46:34.374Z,100.00
2018-11-10T20:49:05.816Z,100.00
2018-11-10T20:51:36.265Z,100.00
2018-11-10T20:54:06.938Z,100.00
2018-11-10T20:56:39.155Z,100.00
2018-11-10T20:59:11.020Z,100.00
2018-11-10T21:01:42.252Z,100.00
2018-11-10T21:04:18.769Z,100.00
2018-11-10T21:06:50.477Z,100.00
2018-11-10T21:09:21.928Z,100.00
2018-11-10T21:11:51.532Z,100.00
2018-11-10T21:14:22.680Z,100.00
2018-11-10T21:16:54.555Z,100.00
2018-11-10T21:19:53.206Z,100.00
2018-11-10T21:22:23.221Z,100.00
2018-11-10T21:24:54.490Z,100.00
2018-11-10T21:27:28.409Z,100.00
2018-11-10T21:29:59.747Z,100.00
2018-11-10T21:32:35.542Z,100.00
2018-11-10T21:35:06.297Z,100.00
2018-11-10T21:37:39.870Z,100.00
2018-11-10T21:40:17.298Z,100.00
2018-11-10T21:42:48.049Z,100.00
2018-11-10T21:45:18.724Z,100.00
2018-11-10T21:47:48.642Z,100.00
2018-11-10T21:50:20.414Z,100.00
2018-11-10T21:52:52.366Z,100.00
2018-11-10T21:55:25.726Z,100.00
2018-11-10T21:57:56.242Z,100.00
2018-11-10T22:00:27.750Z,99.27
2018-11-10T22:03:00.657Z,98.45
2018-11-10T22:05:30.712Z,100.00
2018-11-10T22:08:00.936Z,100.00
2018-11-10T22:10:30.477Z,100.00
2018-11-10T22:13:00.064Z,100.00
2018-11-10T22:15:30.147Z,100.00
2018-11-10T22:18:00.165Z,100.00
2018-11-10T22:20:30.881Z,100.00
2018-11-10T22:23:00.714Z,100.00
2018-11-10T22:25:30.546Z,100.00
2018-11-10T22:28:02.637Z,98.71
2018-11-10T22:30:32.647Z,98.30
2018-11-10T22:33:02.336Z,100.00
2018-11-10T22:35:32.982Z,98.79
2018-11-10T22:38:02.557Z,100.00
2018-11-10T22:40:32.116Z,100.00
2018-11-10T22:43:03.218Z,100.00
2018-11-10T22:45:32.926Z,100.00
2018-11-10T22:48:02.798Z,100.00
2018-11-10T22:50:33.516Z,99.93
2018-11-10T22:53:03.361Z,100.00
2018-11-10T22:55:33.168Z,99.91
2018-11-10T22:58:03.064Z,100.00
2018-11-10T23:00:33.063Z,100.00
2018-11-10T23:03:02.915Z,100.00
2018-11-10T23:05:32.522Z,100.00
2018-11-10T23:08:02.667Z,100.00
2018-11-10T23:10:32.308Z,100.00
2018-11-10T23:13:02.135Z,100.00
2018-11-10T23:15:31.781Z,100.00
2018-11-10T23:18:01.989Z,100.00
2018-11-10T23:20:31.694Z,100.00
2018-11-10T23:23:03.679Z,100.00
2018-11-10T23:25:33.228Z,100.00
2018-11-10T23:28:03.084Z,100.00
2018-11-10T23:30:33.217Z,100.00
2018-11-10T23:33:03.198Z,100.00
2018-11-10T23:35:32.771Z,100.00
2018-11-10T23:38:02.675Z,100.00
2018-11-10T23:40:33.808Z,100.00
2018-11-10T23:43:04.018Z,100.00
2018-11-10T23:45:33.928Z,100.00
2018-11-10T23:48:03.617Z,100.00
2018-11-10T23:50:33.626Z,100.00
2018-11-10T23:53:03.542Z,100.00
2018-11-10T23:55:33.318Z,100.00
2018-11-10T23:58:03.188Z,100.00
